createdAt,value
2023-02-09T00:01:55.773Z,44.90
2023-02-09T00:04:28.688Z,49.60
2023-02-09T00:07:06.049Z,45.10
2023-02-09T00:09:39.972Z,41.40
2023-02-09T00:12:32.399Z,43.20
2023-02-09T00:17:39.931Z,41.60
2023-02-09T00:20:13.913Z,47.30
2023-02-09T00:22:50.331Z,45.60
2023-02-09T00:25:22.952Z,46.90
2023-02-09T00:27:55.613Z,44.30
2023-02-09T00:30:28.146Z,45.10
2023-02-09T00:33:00.580Z,46.50
2023-02-09T00:35:33.172Z,48.70
2023-02-09T00:38:05.826Z,43.20
2023-02-09T00:40:38.691Z,47.40
2023-02-09T00:43:12.072Z,49.00
2023-02-09T00:45:44.577Z,47.50
2023-02-09T00:48:17.234Z,48.20
2023-02-09T00:50:51.134Z,47.00
2023-02-09T00:53:25.972Z,48.30
2023-02-09T00:56:02.069Z,49.50
2023-02-09T00:58:34.778Z,46.40
2023-02-09T01:01:07.456Z,47.70
2023-02-09T01:03:39.894Z,47.10
2023-02-09T01:06:12.556Z,47.00
2023-02-09T01:08:47.903Z,45.70
2023-02-09T01:11:20.253Z,43.20
2023-02-09T01:13:53.645Z,43.60
2023-02-09T01:16:28.895Z,45.40
2023-02-09T01:19:04.032Z,43.30
2023-02-09T01:21:42.886Z,43.20
2023-02-09T01:24:16.851Z,46.60
2023-02-09T01:26:49.504Z,45.20
2023-02-09T01:29:24.387Z,41.80
2023-02-09T01:32:00.583Z,39.90
2023-02-09T01:34:33.106Z,38.90
2023-02-09T01:37:08.159Z,42.50
2023-02-09T01:39:40.510Z,40.50
2023-02-09T01:42:17.755Z,39.10
2023-02-09T01:45:24.547Z,38.20
2023-02-09T01:48:03.611Z,36.80
2023-02-09T01:50:40.363Z,37.10
2023-02-09T01:53:13.526Z,36.80
2023-02-09T01:55:52.708Z,39.90
2023-02-09T01:58:26.871Z,42.70
2023-02-09T02:01:00.242Z,45.00
2023-02-09T02:03:33.436Z,45.30
2023-02-09T02:06:14.018Z,42.80
2023-02-09T02:08:52.667Z,40.80
2023-02-09T02:11:27.793Z,41.20
2023-02-09T02:14:00.575Z,40.50
2023-02-09T02:16:52.168Z,37.50
2023-02-09T02:19:55.562Z,37.90
2023-02-09T02:23:00.899Z,35.00
2023-02-09T02:26:23.360Z,37.80
2023-02-09T02:29:26.164Z,38.10
2023-02-09T02:32:22.908Z,36.10
2023-02-09T02:35:02.152Z,38.50
2023-02-09T02:37:47.868Z,36.50
2023-02-09T02:40:29.738Z,35.70
2023-02-09T02:43:09.876Z,37.30
2023-02-09T02:45:47.958Z,35.80
2023-02-09T02:48:31.181Z,38.20
2023-02-09T02:51:07.143Z,36.50
2023-02-09T02:53:45.596Z,37.20
2023-02-09T02:56:21.358Z,34.60
2023-02-09T02:58:58.164Z,36.40
2023-02-09T03:01:35.380Z,34.90
2023-02-09T03:04:09.705Z,35.80
2023-02-09T03:06:42.210Z,32.90
2023-02-09T03:09:14.613Z,33.20
2023-02-09T03:11:51.512Z,34.40
2023-02-09T03:14:44.003Z,35.30
2023-02-09T03:17:32.721Z,35.10
2023-02-09T03:20:12.142Z,36.90
2023-02-09T03:22:48.839Z,28.40
2023-02-09T03:25:25.924Z,36.40
2023-02-09T03:28:07.774Z,37.00
2023-02-09T03:30:42.533Z,31.70
2023-02-09T03:33:22.608Z,34.90
2023-02-09T03:35:59.161Z,32.00
2023-02-09T03:38:31.577Z,35.50
2023-02-09T03:41:03.981Z,36.60
2023-02-09T03:43:50.147Z,34.60
2023-02-09T03:46:22.471Z,33.30
2023-02-09T03:48:54.855Z,39.10
2023-02-09T03:51:28.333Z,37.40
2023-02-09T03:54:00.753Z,34.50
2023-02-09T03:56:33.033Z,35.70
2023-02-09T03:59:05.453Z,39.30
2023-02-09T04:01:38.135Z,39.10
2023-02-09T04:04:11.142Z,37.00
2023-02-09T04:06:43.467Z,39.40
2023-02-09T04:09:15.802Z,37.10
2023-02-09T04:11:50.916Z,37.10
2023-02-09T04:14:23.530Z,37.10
2023-02-09T04:16:58.124Z,36.00
2023-02-09T04:19:30.442Z,42.70
2023-02-09T04:22:02.907Z,40.50
2023-02-09T04:24:35.289Z,44.00
2023-02-09T04:27:07.709Z,41.50
2023-02-09T04:29:39.974Z,41.20
2023-02-09T04:32:12.537Z,41.50
2023-02-09T04:34:45.201Z,38.40
2023-02-09T04:37:17.513Z,40.40
2023-02-09T04:39:49.844Z,43.10
2023-02-09T04:42:22.345Z,42.30
2023-02-09T04:44:54.801Z,41.90
2023-02-09T04:47:27.262Z,38.50
2023-02-09T04:49:59.590Z,42.00
2023-02-09T04:52:31.886Z,42.40
2023-02-09T04:55:04.292Z,39.50
2023-02-09T04:57:54.319Z,42.90
2023-02-09T05:00:26.967Z,38.10
2023-02-09T05:02:59.449Z,40.50
2023-02-09T05:05:31.943Z,42.40
2023-02-09T05:08:04.084Z,41.70
2023-02-09T05:10:36.603Z,41.20
2023-02-09T05:13:08.974Z,43.40
2023-02-09T05:15:41.254Z,46.80
2023-02-09T05:18:13.508Z,51.80
2023-02-09T05:20:49.921Z,57.60
2023-02-09T05:23:22.440Z,59.80
2023-02-09T05:25:55.127Z,71.00
2023-02-09T05:28:27.595Z,85.50
2023-02-09T05:30:59.916Z,67.50
2023-02-09T05:33:32.527Z,58.20
2023-02-09T05:36:09.304Z,49.90
2023-02-09T05:38:42.220Z,52.40
2023-02-09T05:41:36.360Z,51.80
2023-02-09T05:44:08.904Z,51.80
2023-02-09T05:46:41.516Z,54.60
2023-02-09T05:49:13.930Z,44.10
2023-02-09T05:51:46.165Z,44.60
2023-02-09T05:54:18.385Z,47.40
2023-02-09T05:56:50.687Z,48.30
2023-02-09T05:59:23.317Z,45.70
2023-02-09T06:01:55.630Z,51.40
2023-02-09T06:04:28.688Z,47.30
2023-02-09T06:07:01.394Z,45.60
2023-02-09T06:09:33.869Z,49.50
2023-02-09T06:12:06.633Z,47.60
2023-02-09T06:14:38.886Z,44.80
2023-02-09T06:17:11.191Z,40.00
2023-02-09T06:19:43.553Z,47.50
2023-02-09T06:22:15.974Z,45.30
2023-02-09T06:24:48.798Z,49.00
2023-02-09T06:27:21.437Z,44.80
2023-02-09T06:29:54.033Z,48.50
2023-02-09T06:32:26.409Z,47.10
2023-02-09T06:34:58.802Z,41.50
2023-02-09T06:37:31.102Z,45.80
2023-02-09T06:40:03.444Z,49.10
2023-02-09T06:42:44.802Z,45.80
2023-02-09T06:45:18.806Z,48.50
2023-02-09T06:47:51.076Z,48.20
2023-02-09T06:50:23.882Z,51.40
2023-02-09T06:52:58.246Z,48.40
2023-02-09T06:55:30.557Z,48.70
2023-02-09T06:58:02.910Z,49.70
2023-02-09T07:00:35.493Z,50.40
2023-02-09T07:03:07.954Z,50.20
2023-02-09T07:05:40.468Z,49.70
2023-02-09T07:08:12.828Z,52.00
2023-02-09T07:10:48.115Z,52.90
2023-02-09T07:13:20.408Z,48.90
2023-02-09T07:15:58.900Z,45.70
2023-02-09T07:18:33.395Z,52.90
2023-02-09T07:21:08.665Z,50.30
2023-02-09T07:23:41.523Z,51.80
2023-02-09T07:26:16.718Z,50.40
2023-02-09T07:28:52.491Z,50.20
2023-02-09T07:31:27.318Z,50.00
2023-02-09T07:33:59.741Z,51.60
2023-02-09T07:36:32.113Z,52.40
2023-02-09T07:39:05.805Z,53.80
2023-02-09T07:41:38.491Z,51.70
2023-02-09T07:44:11.694Z,48.60
2023-02-09T07:46:49.771Z,51.80
2023-02-09T07:49:22.227Z,46.50
2023-02-09T07:55:12.336Z,50.30
2023-02-09T07:57:44.599Z,47.30
2023-02-09T08:00:20.915Z,42.90
2023-02-09T08:02:53.855Z,43.20
2023-02-09T08:05:32.365Z,42.80
2023-02-09T08:08:04.910Z,46.60
2023-02-09T08:10:37.882Z,43.90
2023-02-09T08:13:15.224Z,43.20
2023-02-09T08:15:51.949Z,43.30
2023-02-09T08:18:29.396Z,40.20
2023-02-09T08:21:01.892Z,41.50
2023-02-09T08:23:39.531Z,45.10
2023-02-09T08:26:15.173Z,42.10
2023-02-09T08:28:47.578Z,41.60
2023-02-09T08:31:23.093Z,36.70
2023-02-09T08:33:55.721Z,39.70
2023-02-09T08:36:28.042Z,41.20
2023-02-09T08:39:00.354Z,37.80
2023-02-09T08:41:36.329Z,39.60
2023-02-09T08:44:08.612Z,35.40
2023-02-09T08:46:41.046Z,40.50
2023-02-09T08:49:13.487Z,39.50
2023-02-09T08:51:46.187Z,31.50
2023-02-09T08:54:18.885Z,38.20
2023-02-09T08:56:51.106Z,37.30
2023-02-09T08:59:23.510Z,36.10
2023-02-09T09:01:55.937Z,37.50
2023-02-09T09:04:29.664Z,31.90
2023-02-09T09:07:02.157Z,37.10
2023-02-09T09:09:34.595Z,36.40
2023-02-09T09:12:08.432Z,35.20
2023-02-09T09:14:40.692Z,36.60
2023-02-09T09:17:13.000Z,35.50
2023-02-09T09:19:45.288Z,35.30
2023-02-09T09:22:17.597Z,32.60
2023-02-09T09:24:50.065Z,32.10
2023-02-09T09:27:22.474Z,31.60
2023-02-09T09:29:54.853Z,31.80
2023-02-09T09:32:27.534Z,27.40
2023-02-09T09:35:03.549Z,28.20
2023-02-09T09:37:35.880Z,28.50
2023-02-09T09:40:09.056Z,24.60
2023-02-09T09:42:50.026Z,22.60
2023-02-09T09:45:26.648Z,22.80
2023-02-09T09:47:58.941Z,21.50
2023-02-09T09:50:40.245Z,18.50
2023-02-09T09:53:19.571Z,20.30
2023-02-09T09:55:56.635Z,17.40
2023-02-09T09:58:31.392Z,18.90
2023-02-09T10:01:03.985Z,19.20
2023-02-09T10:03:38.632Z,17.70
2023-02-09T10:06:19.289Z,19.00
2023-02-09T10:08:58.982Z,17.00
2023-02-09T10:11:36.699Z,18.30
2023-02-09T10:14:09.580Z,18.30
2023-02-09T10:16:47.982Z,18.20
2023-02-09T10:19:29.393Z,18.40
2023-02-09T10:22:02.267Z,18.20
2023-02-09T10:24:37.199Z,18.00
2023-02-09T10:27:15.978Z,17.80
2023-02-09T10:29:49.017Z,16.30
2023-02-09T10:32:24.378Z,17.10
2023-02-09T10:35:02.296Z,17.70
2023-02-09T10:37:39.499Z,18.50
2023-02-09T10:40:18.414Z,17.70
2023-02-09T10:42:58.361Z,17.60
2023-02-09T10:45:38.256Z,16.10
2023-02-09T10:48:21.190Z,17.90
2023-02-09T10:50:57.371Z,16.90
2023-02-09T10:53:32.695Z,17.00
2023-02-09T10:56:13.608Z,16.90
2023-02-09T10:58:52.482Z,16.30
2023-02-09T11:01:28.539Z,18.10
2023-02-09T11:04:04.959Z,16.60
2023-02-09T11:06:49.890Z,16.50
2023-02-09T11:09:28.022Z,16.60
2023-02-09T11:12:00.595Z,16.80
2023-02-09T11:14:33.046Z,15.40
2023-02-09T11:17:24.302Z,15.80
2023-02-09T11:20:23.378Z,17.30
2023-02-09T11:23:08.098Z,16.50
2023-02-09T11:25:46.888Z,17.50
2023-02-09T11:28:36.656Z,16.00
2023-02-09T11:31:36.393Z,16.50
2023-02-09T11:34:19.843Z,16.20
2023-02-09T11:37:06.225Z,18.30
2023-02-09T11:42:45.733Z,19.00
2023-02-09T11:45:26.314Z,17.70
2023-02-09T11:48:06.467Z,18.20
2023-02-09T11:50:48.636Z,16.40
2023-02-09T11:53:29.067Z,18.30
2023-02-09T11:56:04.301Z,17.90
2023-02-09T11:58:56.202Z,17.00
2023-02-09T12:01:35.598Z,13.90
2023-02-09T12:04:17.628Z,15.80
2023-02-09T12:06:54.636Z,17.20
2023-02-09T12:09:38.884Z,17.70
2023-02-09T12:12:24.752Z,16.80
2023-02-09T12:15:15.789Z,16.10
2023-02-09T12:17:52.543Z,14.70
2023-02-09T12:20:28.575Z,15.00
2023-02-09T12:23:04.519Z,17.90
2023-02-09T12:25:55.388Z,17.20
2023-02-09T12:28:46.195Z,17.10
2023-02-09T12:31:23.002Z,16.50
2023-02-09T12:34:28.943Z,15.10
2023-02-09T12:37:28.466Z,16.90
2023-02-09T12:40:24.542Z,17.00
2023-02-09T12:43:30.668Z,16.60
2023-02-09T12:46:23.663Z,17.40
2023-02-09T12:49:22.990Z,15.50
2023-02-09T12:52:15.179Z,15.20
2023-02-09T12:54:52.198Z,16.00
2023-02-09T12:57:54.386Z,14.70
2023-02-09T13:00:47.646Z,14.10
2023-02-09T13:03:23.328Z,14.90
2023-02-09T13:06:00.932Z,15.80
2023-02-09T13:08:49.833Z,15.40
2023-02-09T13:11:31.226Z,15.80
2023-02-09T13:14:09.833Z,15.40
2023-02-09T13:17:18.301Z,15.50
2023-02-09T13:20:08.432Z,18.10
2023-02-09T13:22:54.244Z,16.20
2023-02-09T13:25:32.464Z,17.10
2023-02-09T13:28:16.526Z,16.70
2023-02-09T13:30:49.586Z,16.70
2023-02-09T13:33:37.787Z,16.20
2023-02-09T13:36:25.134Z,16.00
2023-02-09T13:38:58.091Z,17.30
2023-02-09T13:41:37.095Z,17.30
2023-02-09T13:44:26.653Z,16.50
2023-02-09T13:47:04.145Z,16.10
2023-02-09T13:49:36.962Z,16.10
2023-02-09T13:52:14.175Z,16.20
2023-02-09T13:54:47.442Z,15.40
2023-02-09T13:57:34.972Z,15.20
2023-02-09T14:00:18.004Z,14.60
2023-02-09T14:02:58.547Z,14.80
2023-02-09T14:05:41.448Z,14.90
2023-02-09T14:08:15.943Z,16.00
2023-02-09T14:10:53.962Z,14.90
2023-02-09T14:13:30.059Z,15.30
2023-02-09T14:16:10.170Z,14.50
2023-02-09T14:18:59.484Z,15.70
2023-02-09T14:21:45.168Z,14.00
2023-02-09T14:24:23.268Z,15.00
2023-02-09T14:27:00.162Z,13.40
2023-02-09T14:29:34.372Z,12.60
2023-02-09T14:32:32.335Z,12.20
2023-02-09T14:35:20.838Z,11.20
2023-02-09T14:37:55.976Z,10.90
2023-02-09T14:40:45.637Z,9.50
2023-02-09T14:43:29.572Z,11.00
2023-02-09T14:46:03.999Z,11.30
2023-02-09T14:48:36.704Z,10.40
2023-02-09T14:51:17.405Z,11.60
2023-02-09T14:53:50.374Z,11.90
2023-02-09T14:56:29.751Z,12.70
2023-02-09T14:59:03.547Z,11.70
2023-02-09T15:01:35.827Z,11.40
2023-02-09T15:04:08.129Z,10.70
2023-02-09T15:06:41.187Z,11.20
2023-02-09T15:09:22.595Z,11.00
2023-02-09T15:12:07.061Z,11.20
2023-02-09T15:14:46.645Z,10.80
2023-02-09T15:17:21.749Z,11.20
2023-02-09T15:19:54.911Z,11.80
2023-02-09T15:22:27.775Z,12.70
2023-02-09T15:24:59.945Z,12.70
2023-02-09T15:27:36.535Z,13.10
2023-02-09T15:30:16.918Z,12.80
2023-02-09T15:32:49.351Z,14.90
2023-02-09T15:35:23.924Z,14.60
2023-02-09T15:37:57.742Z,16.00
2023-02-09T15:40:55.878Z,15.00
2023-02-09T15:43:46.906Z,14.10
2023-02-09T15:46:36.875Z,13.00
2023-02-09T15:49:09.304Z,14.70
2023-02-09T15:51:42.592Z,15.20
2023-02-09T15:54:19.976Z,14.10
2023-02-09T15:56:52.479Z,14.30
2023-02-09T15:59:26.171Z,15.00
2023-02-09T16:02:00.258Z,16.20
2023-02-09T16:04:32.853Z,15.20
2023-02-09T16:07:05.146Z,14.70
2023-02-09T16:09:37.487Z,15.50
2023-02-09T16:12:12.883Z,14.20
2023-02-09T16:14:45.831Z,15.70
2023-02-09T16:17:17.999Z,15.70
2023-02-09T16:19:52.385Z,16.60
2023-02-09T16:22:25.233Z,15.40
2023-02-09T16:24:57.527Z,13.40
2023-02-09T16:27:30.790Z,17.50
2023-02-09T16:30:17.019Z,15.80
2023-02-09T16:32:53.649Z,20.00
2023-02-09T16:35:26.736Z,18.40
2023-02-09T16:37:59.346Z,19.20
2023-02-09T16:40:34.054Z,18.30
2023-02-09T16:43:06.918Z,17.90
2023-02-09T16:45:44.610Z,19.60
2023-02-09T16:48:26.648Z,16.40
2023-02-09T16:50:59.656Z,17.20
2023-02-09T16:53:36.221Z,16.60
2023-02-09T16:56:12.031Z,15.90
2023-02-09T16:58:44.997Z,17.20
2023-02-09T17:01:20.872Z,17.10
2023-02-09T17:03:55.944Z,16.20
2023-02-09T17:06:30.934Z,17.10
2023-02-09T17:09:03.217Z,17.60
2023-02-09T17:11:35.441Z,20.10
2023-02-09T17:14:07.653Z,19.10
2023-02-09T17:16:43.474Z,18.00
2023-02-09T17:19:18.307Z,17.60
2023-02-09T17:21:50.513Z,19.20
2023-02-09T17:24:22.751Z,20.30
2023-02-09T17:26:55.287Z,17.60
2023-02-09T17:29:27.592Z,19.50
2023-02-09T17:32:01.861Z,19.20
2023-02-09T17:34:34.192Z,19.20
2023-02-09T17:37:06.689Z,19.80
2023-02-09T17:39:39.138Z,21.60
2023-02-09T17:42:21.947Z,22.00
2023-02-09T17:44:54.873Z,23.70
2023-02-09T17:47:28.161Z,29.80
2023-02-09T17:50:00.388Z,23.30
2023-02-09T17:52:32.879Z,21.30
2023-02-09T17:55:05.307Z,22.10
2023-02-09T17:57:37.592Z,18.80
2023-02-09T18:00:12.382Z,21.70
2023-02-09T18:02:45.433Z,20.10
2023-02-09T18:05:22.137Z,24.30
2023-02-09T18:07:55.014Z,21.90
2023-02-09T18:10:27.408Z,22.10
2023-02-09T18:12:59.614Z,23.70
2023-02-09T18:15:35.523Z,21.60
2023-02-09T18:18:08.102Z,20.10
2023-02-09T18:20:41.145Z,24.30
2023-02-09T18:23:16.437Z,21.50
2023-02-09T18:25:49.911Z,24.20
2023-02-09T18:28:22.735Z,22.30
2023-02-09T18:30:55.048Z,24.10
2023-02-09T18:33:27.237Z,24.10
2023-02-09T18:35:59.424Z,24.30
2023-02-09T18:38:31.676Z,24.70
2023-02-09T18:41:04.063Z,24.20
2023-02-09T18:43:37.474Z,24.50
2023-02-09T18:46:11.985Z,26.80
2023-02-09T18:48:44.285Z,22.50
2023-02-09T18:51:17.404Z,20.20
2023-02-09T18:53:51.255Z,23.80
2023-02-09T18:56:25.861Z,23.50
2023-02-09T18:58:58.132Z,24.60
2023-02-09T19:01:30.321Z,26.60
2023-02-09T19:04:04.100Z,27.90
2023-02-09T19:06:37.560Z,27.40
2023-02-09T19:09:10.787Z,26.30
2023-02-09T19:11:58.575Z,25.80
2023-02-09T19:14:40.488Z,29.40
2023-02-09T19:17:23.630Z,26.40
2023-02-09T19:20:09.291Z,27.60
2023-02-09T19:22:51.921Z,25.10
2023-02-09T19:25:27.663Z,30.20
2023-02-09T19:28:03.025Z,28.50
2023-02-09T19:30:41.430Z,29.60
2023-02-09T19:33:15.588Z,31.10
2023-02-09T19:35:48.041Z,32.20
2023-02-09T19:38:24.331Z,30.10
2023-02-09T19:41:10.498Z,29.50
2023-02-09T19:43:44.468Z,31.40
2023-02-09T19:46:17.955Z,24.90
2023-02-09T19:48:50.520Z,28.00
2023-02-09T19:51:24.807Z,25.90
2023-02-09T19:53:56.896Z,30.00
2023-02-09T19:56:29.339Z,27.20
2023-02-09T19:59:02.328Z,27.60
2023-02-09T20:01:34.792Z,28.00
2023-02-09T20:04:07.339Z,27.80
2023-02-09T20:06:39.576Z,27.60
2023-02-09T20:09:12.452Z,28.10
2023-02-09T20:11:44.789Z,25.80
2023-02-09T20:14:17.000Z,24.40
2023-02-09T20:16:49.264Z,24.70
2023-02-09T20:19:27.261Z,21.70
2023-02-09T20:21:59.844Z,23.30
2023-02-09T20:24:32.119Z,25.00
2023-02-09T20:27:04.997Z,22.50
2023-02-09T20:29:40.114Z,23.60
2023-02-09T20:32:15.310Z,21.30
2023-02-09T20:34:50.462Z,23.30
2023-02-09T20:37:22.829Z,22.50
2023-02-09T20:39:55.541Z,20.60
2023-02-09T20:42:45.928Z,21.00
2023-02-09T20:45:36.644Z,17.10
2023-02-09T20:48:10.458Z,19.50
2023-02-09T20:50:42.713Z,20.50
2023-02-09T20:53:15.177Z,20.90
2023-02-09T20:55:47.561Z,19.30
2023-02-09T20:58:24.757Z,18.40
2023-02-09T21:00:57.089Z,19.10
2023-02-09T21:03:29.543Z,18.30
2023-02-09T21:08:42.881Z,19.10
2023-02-09T21:11:17.530Z,17.80
2023-02-09T21:13:55.788Z,16.60
2023-02-09T21:16:28.741Z,19.40
2023-02-09T21:19:01.893Z,16.20
2023-02-09T21:21:34.700Z,17.80
2023-02-09T21:24:12.134Z,15.60
2023-02-09T21:26:44.472Z,16.60
2023-02-09T21:29:20.652Z,18.30
2023-02-09T21:31:55.324Z,17.20
2023-02-09T21:34:27.577Z,18.10
2023-02-09T21:36:59.989Z,16.80
2023-02-09T21:39:34.428Z,17.50
2023-02-09T21:42:24.284Z,17.10
2023-02-09T21:44:58.609Z,16.90
2023-02-09T21:47:32.817Z,17.10
2023-02-09T21:50:05.697Z,16.10
2023-02-09T21:52:38.774Z,17.40
2023-02-09T21:55:11.366Z,15.20
2023-02-09T21:57:43.669Z,17.80
2023-02-09T22:00:17.999Z,17.90
2023-02-09T22:02:54.555Z,16.80
2023-02-09T22:05:27.135Z,17.80
2023-02-09T22:07:59.415Z,16.40
2023-02-09T22:10:31.616Z,15.50
2023-02-09T22:13:08.598Z,17.30
2023-02-09T22:15:44.364Z,14.90
2023-02-09T22:18:18.076Z,17.50
2023-02-09T22:20:51.590Z,17.60
2023-02-09T22:23:27.124Z,15.20
2023-02-09T22:26:02.895Z,13.80
2023-02-09T22:28:36.681Z,16.40
2023-02-09T22:31:19.805Z,17.70
2023-02-09T22:33:55.242Z,16.60
2023-02-09T22:36:31.194Z,15.60
2023-02-09T22:39:07.660Z,17.10
2023-02-09T22:41:40.106Z,16.50
2023-02-09T22:44:17.991Z,15.90
2023-02-09T22:46:50.318Z,16.40
2023-02-09T22:49:24.113Z,16.20
2023-02-09T22:52:01.757Z,15.10
2023-02-09T22:54:36.254Z,17.10
2023-02-09T22:57:13.416Z,16.80
2023-02-09T22:59:52.076Z,16.00
2023-02-09T23:02:29.945Z,17.90
2023-02-09T23:05:05.583Z,16.40
2023-02-09T23:07:38.005Z,19.20
2023-02-09T23:10:14.287Z,16.40
2023-02-09T23:12:49.584Z,15.90
2023-02-09T23:15:27.870Z,18.00
2023-02-09T23:18:09.428Z,16.80
2023-02-09T23:20:47.769Z,18.90
2023-02-09T23:23:24.941Z,16.30
2023-02-09T23:26:02.831Z,18.90
2023-02-09T23:28:40.317Z,16.60
2023-02-09T23:31:19.062Z,16.80
2023-02-09T23:34:04.266Z,18.20
2023-02-09T23:36:39.682Z,18.60
2023-02-09T23:39:25.899Z,15.10
2023-02-09T23:41:59.387Z,17.80
2023-02-09T23:44:32.240Z,18.60
2023-02-09T23:47:04.491Z,16.90
2023-02-09T23:49:40.267Z,16.90
2023-02-09T23:52:12.504Z,16.10
2023-02-09T23:54:45.120Z,17.20
2023-02-09T23:57:17.980Z,18.80
2023-02-09T23:59:50.929Z,16.00
